createdAt,value
2023-04-16T00:01:17.526Z,79.31
2023-04-16T00:04:21.115Z,78.78
2023-04-16T00:07:23.757Z,79.33
2023-04-16T00:10:26.356Z,79.14
2023-04-16T00:13:29.830Z,79.63
2023-04-16T00:16:33.383Z,78.82
2023-04-16T00:19:36.386Z,79.43
2023-04-16T00:22:39.520Z,79.47
2023-04-16T00:25:42.928Z,79.63
2023-04-16T00:28:45.652Z,80.26
2023-04-16T00:31:49.536Z,80.04
2023-04-16T00:34:52.683Z,79.59
2023-04-16T00:37:55.794Z,80.42
2023-04-16T00:40:59.329Z,80.25
2023-04-16T00:44:02.361Z,80.22
2023-04-16T00:47:07.596Z,80.44
2023-04-16T00:50:11.553Z,79.97
2023-04-16T00:53:16.224Z,80.18
2023-04-16T00:56:21.240Z,81.26
2023-04-16T00:59:24.508Z,81.16
2023-04-16T01:02:27.340Z,81.14
2023-04-16T01:05:30.366Z,81.12
2023-04-16T01:08:33.702Z,81.24
2023-04-16T01:11:37.218Z,81.77
2023-04-16T01:14:40.014Z,80.96
2023-04-16T01:17:46.190Z,81.45
2023-04-16T01:20:51.253Z,81.15
2023-04-16T01:23:55.202Z,81.74
2023-04-16T01:27:01.001Z,80.71
2023-04-16T01:30:05.149Z,80.71
2023-04-16T01:33:18.967Z,80.58
2023-04-16T01:36:21.684Z,81.21
2023-04-16T01:39:24.610Z,80.44
2023-04-16T01:42:29.271Z,80.48
2023-04-16T01:45:33.418Z,80.53
2023-04-16T01:48:36.323Z,80.80
2023-04-16T01:51:39.134Z,80.52
2023-04-16T01:54:42.739Z,80.39
2023-04-16T01:57:46.247Z,80.02
2023-04-16T02:00:49.779Z,80.11
2023-04-16T02:03:53.598Z,80.54
2023-04-16T02:06:56.230Z,80.25
2023-04-16T02:09:58.886Z,80.67
2023-04-16T02:13:01.599Z,80.46
2023-04-16T02:16:04.633Z,80.67
2023-04-16T02:19:26.924Z,80.38
2023-04-16T02:22:30.101Z,80.42
2023-04-16T02:25:33.131Z,80.08
2023-04-16T02:28:35.990Z,79.41
2023-04-16T02:31:39.103Z,79.20
2023-04-16T02:34:43.384Z,79.36
2023-04-16T02:37:47.004Z,79.63
2023-04-16T02:40:49.743Z,79.40
2023-04-16T02:43:52.998Z,79.75
2023-04-16T02:46:55.696Z,79.80
2023-04-16T02:49:58.387Z,80.16
2023-04-16T02:53:00.919Z,79.68
2023-04-16T02:56:03.599Z,80.00
2023-04-16T02:59:06.331Z,80.29
2023-04-16T03:02:09.020Z,80.55
2023-04-16T03:05:12.465Z,80.78
2023-04-16T03:08:15.483Z,81.20
2023-04-16T03:11:18.092Z,81.09
2023-04-16T03:14:20.921Z,81.32
2023-04-16T03:17:23.620Z,80.80
2023-04-16T03:20:27.399Z,80.61
2023-04-16T03:23:30.841Z,80.94
2023-04-16T03:26:33.659Z,81.03
2023-04-16T03:29:38.394Z,81.38
2023-04-16T03:32:43.772Z,81.09
2023-04-16T03:35:54.716Z,80.70
2023-04-16T03:38:57.492Z,80.51
2023-04-16T03:42:00.489Z,80.25
2023-04-16T03:45:04.131Z,80.32
2023-04-16T03:48:07.900Z,80.22
2023-04-16T03:51:11.052Z,79.76
2023-04-16T03:54:15.028Z,79.62
2023-04-16T03:57:21.761Z,79.68
2023-04-16T04:00:24.675Z,79.82
2023-04-16T04:03:37.538Z,79.71
2023-04-16T04:06:41.048Z,79.89
2023-04-16T04:09:43.970Z,79.69
2023-04-16T04:12:47.126Z,79.11
2023-04-16T04:15:50.778Z,79.55
2023-04-16T04:18:53.559Z,79.92
2023-04-16T04:21:57.556Z,79.83
2023-04-16T04:25:00.217Z,80.23
2023-04-16T04:28:05.487Z,80.54
2023-04-16T04:31:08.065Z,80.16
2023-04-16T04:34:11.396Z,79.96
2023-04-16T04:37:14.158Z,79.70
2023-04-16T04:40:17.420Z,78.64
2023-04-16T04:43:21.244Z,79.05
2023-04-16T04:46:23.976Z,78.36
2023-04-16T04:49:27.520Z,78.50
2023-04-16T04:52:30.345Z,78.23
2023-04-16T04:55:33.144Z,78.19
2023-04-16T04:58:36.075Z,77.86
2023-04-16T05:01:39.269Z,78.47
2023-04-16T05:04:42.874Z,79.30
2023-04-16T05:07:46.438Z,79.23
2023-04-16T05:10:49.267Z,78.36
2023-04-16T05:13:52.062Z,78.44
2023-04-16T05:16:54.740Z,79.10
2023-04-16T05:19:57.390Z,78.14
2023-04-16T05:22:59.991Z,77.67
2023-04-16T05:26:03.520Z,77.45
2023-04-16T05:29:06.236Z,76.99
2023-04-16T05:32:09.174Z,76.92
2023-04-16T05:35:11.820Z,76.63
2023-04-16T05:38:14.510Z,76.69
2023-04-16T05:41:17.038Z,76.39
2023-04-16T05:44:20.482Z,77.02
2023-04-16T05:47:23.048Z,76.20
2023-04-16T05:50:25.702Z,76.35
2023-04-16T05:53:28.257Z,74.70
2023-04-16T05:56:30.806Z,75.39
2023-04-16T05:59:34.547Z,75.39
2023-04-16T06:02:37.448Z,74.63
2023-04-16T06:05:40.507Z,74.89
2023-04-16T06:08:43.897Z,74.26
2023-04-16T06:11:46.759Z,74.76
2023-04-16T06:14:49.630Z,74.32
2023-04-16T06:17:52.295Z,73.33
2023-04-16T06:20:56.336Z,74.01
2023-04-16T06:23:58.940Z,73.91
2023-04-16T06:27:03.053Z,74.15
2023-04-16T06:30:12.346Z,73.46
2023-04-16T06:33:14.887Z,73.83
2023-04-16T06:36:17.469Z,73.89
2023-04-16T06:39:21.856Z,73.59
2023-04-16T06:42:24.499Z,73.86
2023-04-16T06:45:27.258Z,73.66
2023-04-16T06:48:30.114Z,74.60
2023-04-16T06:51:33.275Z,74.69
2023-04-16T06:54:36.337Z,74.65
2023-04-16T06:57:40.748Z,74.67
2023-04-16T07:00:43.416Z,74.35
2023-04-16T07:03:46.396Z,73.83
2023-04-16T07:06:50.078Z,73.83
2023-04-16T07:09:52.680Z,73.78
2023-04-16T07:12:55.529Z,72.82
2023-04-16T07:15:58.362Z,73.29
2023-04-16T07:19:01.093Z,73.34
2023-04-16T07:22:04.145Z,73.13
2023-04-16T07:25:07.524Z,73.27
2023-04-16T07:28:10.140Z,73.21
2023-04-16T07:31:12.871Z,72.77
2023-04-16T07:34:16.563Z,72.41
2023-04-16T07:37:19.228Z,72.15
2023-04-16T07:40:21.837Z,71.40
2023-04-16T07:43:24.801Z,71.88
2023-04-16T07:46:39.397Z,71.63
2023-04-16T07:49:50.088Z,71.44
2023-04-16T07:52:53.882Z,71.16
2023-04-16T07:55:56.449Z,69.85
2023-04-16T07:59:08.009Z,68.48
2023-04-16T08:02:22.027Z,68.22
2023-04-16T08:05:25.123Z,67.67
2023-04-16T08:08:27.938Z,67.20
2023-04-16T08:11:30.773Z,69.18
2023-04-16T08:14:33.424Z,66.59
2023-04-16T08:17:37.780Z,67.07
2023-04-16T08:20:40.453Z,66.89
2023-04-16T08:23:43.207Z,64.93
2023-04-16T08:26:45.863Z,64.70
2023-04-16T08:29:48.771Z,63.94
2023-04-16T08:32:51.722Z,63.26
2023-04-16T08:35:54.558Z,62.93
2023-04-16T08:38:57.174Z,61.61
2023-04-16T08:42:03.858Z,61.50
2023-04-16T08:45:17.720Z,60.73
2023-04-16T08:48:22.087Z,60.48
2023-04-16T08:51:28.494Z,61.85
2023-04-16T08:54:39.047Z,59.03
2023-04-16T08:57:55.888Z,58.93
2023-04-16T09:00:58.602Z,57.26
2023-04-16T09:04:01.742Z,57.31
2023-04-16T09:07:06.368Z,56.94
2023-04-16T09:10:10.087Z,56.50
2023-04-16T09:13:15.890Z,56.01
2023-04-16T09:16:18.882Z,56.37
2023-04-16T09:19:21.704Z,54.57
2023-04-16T09:22:24.608Z,54.90
2023-04-16T09:25:27.742Z,54.16
2023-04-16T09:28:44.681Z,55.06
2023-04-16T09:32:06.261Z,55.07
2023-04-16T09:35:09.752Z,54.38
2023-04-16T09:38:12.338Z,53.83
2023-04-16T09:41:18.505Z,54.19
2023-04-16T09:44:21.129Z,55.20
2023-04-16T09:47:24.815Z,54.98
2023-04-16T09:50:27.510Z,55.56
2023-04-16T09:53:31.747Z,55.07
2023-04-16T09:56:39.403Z,55.16
2023-04-16T09:59:41.989Z,56.09
2023-04-16T10:02:44.717Z,56.85
2023-04-16T10:05:48.352Z,56.12
2023-04-16T10:08:52.913Z,55.95
2023-04-16T10:11:56.493Z,55.49
2023-04-16T10:14:59.107Z,54.73
2023-04-16T10:18:02.988Z,53.73
2023-04-16T10:21:07.013Z,53.53
2023-04-16T10:24:09.885Z,53.03
2023-04-16T10:27:13.489Z,52.05
2023-04-16T10:30:17.060Z,51.67
2023-04-16T10:33:27.916Z,50.60
2023-04-16T10:36:31.118Z,50.61
2023-04-16T10:39:37.601Z,51.16
2023-04-16T10:42:41.842Z,50.40
2023-04-16T10:45:44.396Z,50.75
2023-04-16T10:48:50.255Z,50.11
2023-04-16T10:51:54.938Z,50.71
2023-04-16T10:55:00.126Z,51.54
2023-04-16T10:58:23.237Z,49.63
2023-04-16T11:01:33.167Z,48.61
2023-04-16T11:04:38.131Z,48.42
2023-04-16T11:07:49.616Z,47.53
2023-04-16T11:10:54.361Z,47.16
2023-04-16T11:13:57.182Z,47.93
2023-04-16T11:17:03.646Z,46.29
2023-04-16T11:20:19.943Z,46.73
2023-04-16T11:23:23.370Z,45.76
2023-04-16T11:26:28.412Z,46.52
2023-04-16T11:29:31.164Z,47.15
2023-04-16T11:32:35.648Z,46.94
2023-04-16T11:35:39.908Z,46.85
2023-04-16T11:38:43.417Z,47.09
2023-04-16T11:41:50.548Z,47.54
2023-04-16T11:44:55.316Z,46.95
2023-04-16T11:47:58.037Z,46.02
2023-04-16T11:51:01.497Z,45.17
2023-04-16T11:54:04.228Z,45.11
2023-04-16T11:57:07.489Z,46.33
2023-04-16T12:00:14.224Z,46.11
2023-04-16T12:03:17.084Z,45.72
2023-04-16T12:06:20.010Z,44.56
2023-04-16T12:09:24.908Z,44.40
2023-04-16T12:12:31.425Z,43.48
2023-04-16T12:15:51.770Z,41.85
2023-04-16T12:19:05.704Z,41.79
2023-04-16T12:22:08.306Z,40.47
2023-04-16T12:25:12.434Z,40.25
2023-04-16T12:28:16.553Z,39.97
2023-04-16T12:31:37.129Z,39.62
2023-04-16T12:34:50.720Z,39.30
2023-04-16T12:37:53.255Z,38.84
2023-04-16T12:40:57.709Z,38.91
2023-04-16T12:44:04.787Z,37.90
2023-04-16T12:47:07.415Z,37.94
2023-04-16T12:50:10.723Z,38.72
2023-04-16T12:53:13.508Z,39.04
2023-04-16T12:56:16.820Z,39.35
2023-04-16T12:59:19.519Z,39.91
2023-04-16T13:02:22.719Z,38.95
2023-04-16T13:05:26.619Z,39.01
2023-04-16T13:08:29.814Z,38.47
2023-04-16T13:11:33.538Z,38.44
2023-04-16T13:14:37.349Z,38.92
2023-04-16T13:17:40.006Z,40.71
2023-04-16T13:20:42.708Z,40.91
2023-04-16T13:23:45.401Z,41.91
2023-04-16T13:26:49.570Z,42.68
2023-04-16T13:29:52.332Z,42.62
2023-04-16T13:32:56.533Z,42.53
2023-04-16T13:35:59.391Z,42.75
2023-04-16T13:39:04.763Z,42.39
2023-04-16T13:42:07.455Z,42.57
2023-04-16T13:45:10.068Z,42.58
2023-04-16T13:48:13.576Z,42.53
2023-04-16T13:51:16.521Z,42.32
2023-04-16T13:54:20.613Z,41.73
2023-04-16T13:57:23.306Z,42.12
2023-04-16T14:00:27.320Z,42.52
2023-04-16T14:03:30.941Z,42.17
2023-04-16T14:06:34.965Z,42.47
2023-04-16T14:09:37.540Z,41.76
2023-04-16T14:12:40.661Z,41.91
2023-04-16T14:15:43.531Z,42.11
2023-04-16T14:18:46.363Z,41.77
2023-04-16T14:21:49.447Z,41.09
2023-04-16T14:24:52.027Z,40.78
2023-04-16T14:27:55.161Z,39.61
2023-04-16T14:30:58.612Z,39.60
2023-04-16T14:34:02.008Z,38.42
2023-04-16T14:37:05.648Z,38.90
2023-04-16T14:40:09.905Z,39.21
2023-04-16T14:43:12.653Z,38.55
2023-04-16T14:46:17.809Z,38.97
2023-04-16T14:49:20.815Z,38.54
2023-04-16T14:52:25.465Z,37.03
2023-04-16T14:55:28.238Z,37.23
2023-04-16T14:58:31.467Z,37.37
2023-04-16T15:01:36.002Z,36.91
2023-04-16T15:04:38.816Z,37.22
2023-04-16T15:07:41.418Z,36.68
2023-04-16T15:10:45.787Z,36.97
2023-04-16T15:13:48.543Z,37.20
2023-04-16T15:16:51.408Z,36.96
2023-04-16T15:19:54.046Z,37.52
2023-04-16T15:22:56.889Z,36.01
2023-04-16T15:25:59.483Z,35.12
2023-04-16T15:29:02.758Z,35.36
2023-04-16T15:32:07.036Z,34.71
2023-04-16T15:35:11.389Z,35.14
2023-04-16T15:38:14.359Z,34.96
2023-04-16T15:41:17.698Z,35.53
2023-04-16T15:44:21.260Z,35.65
2023-04-16T15:47:26.682Z,36.16
2023-04-16T15:50:31.001Z,36.64
2023-04-16T15:53:34.449Z,36.95
2023-04-16T15:56:37.340Z,37.60
2023-04-16T15:59:40.829Z,37.42
2023-04-16T16:02:45.610Z,38.33
2023-04-16T16:05:48.774Z,38.54
2023-04-16T16:08:52.500Z,39.33
2023-04-16T16:11:59.766Z,39.97
2023-04-16T16:15:02.380Z,40.66
2023-04-16T16:18:06.120Z,41.05
2023-04-16T16:21:08.908Z,41.21
2023-04-16T16:24:12.238Z,41.49
2023-04-16T16:27:16.053Z,41.52
2023-04-16T16:30:18.796Z,41.85
2023-04-16T16:33:21.680Z,42.02
2023-04-16T16:36:24.249Z,42.03
2023-04-16T16:39:27.272Z,42.39
2023-04-16T16:42:29.941Z,42.32
2023-04-16T16:45:33.268Z,42.53
2023-04-16T16:48:37.228Z,42.52
2023-04-16T16:51:40.181Z,42.60
2023-04-16T16:54:43.885Z,42.77
2023-04-16T16:57:46.434Z,42.59
2023-04-16T17:00:49.048Z,43.00
2023-04-16T17:03:52.118Z,43.03
2023-04-16T17:06:54.795Z,43.33
2023-04-16T17:10:01.371Z,43.50
2023-04-16T17:13:06.089Z,43.79
2023-04-16T17:16:08.886Z,43.82
2023-04-16T17:19:12.365Z,44.21
2023-04-16T17:22:15.190Z,44.40
2023-04-16T17:25:18.910Z,45.09
2023-04-16T17:28:21.513Z,45.14
2023-04-16T17:31:26.899Z,45.82
2023-04-16T17:34:30.408Z,46.16
2023-04-16T17:37:33.135Z,47.44
2023-04-16T17:40:35.973Z,47.88
2023-04-16T17:43:39.334Z,48.33
2023-04-16T17:46:42.016Z,48.38
2023-04-16T17:49:44.664Z,48.90
2023-04-16T17:52:47.652Z,49.75
2023-04-16T17:55:56.118Z,49.82
2023-04-16T17:58:59.936Z,50.70
2023-04-16T18:02:02.558Z,50.71
2023-04-16T18:05:07.311Z,51.32
2023-04-16T18:08:10.062Z,51.24
2023-04-16T18:11:13.153Z,51.59
2023-04-16T18:14:19.898Z,51.96
2023-04-16T18:17:23.522Z,52.92
2023-04-16T18:20:27.228Z,53.72
2023-04-16T18:23:29.829Z,53.78
2023-04-16T18:26:35.660Z,53.98
2023-04-16T18:29:40.195Z,54.19
2023-04-16T18:32:59.854Z,54.84
2023-04-16T18:36:06.469Z,56.18
2023-04-16T18:39:09.502Z,56.17
2023-04-16T18:42:12.604Z,56.22
2023-04-16T18:45:21.115Z,56.43
2023-04-16T18:48:25.491Z,56.42
2023-04-16T18:51:29.018Z,56.45
2023-04-16T18:54:32.403Z,56.26
2023-04-16T18:57:35.904Z,56.15
2023-04-16T19:00:39.400Z,56.19
2023-04-16T19:03:42.470Z,55.96
2023-04-16T19:06:46.027Z,56.12
2023-04-16T19:09:48.648Z,56.44
2023-04-16T19:12:51.273Z,56.98
2023-04-16T19:16:01.620Z,57.21
2023-04-16T19:19:04.629Z,57.30
2023-04-16T19:22:07.993Z,57.33
2023-04-16T19:25:11.103Z,57.02
2023-04-16T19:28:13.755Z,57.10
2023-04-16T19:31:16.443Z,57.61
2023-04-16T19:34:19.030Z,57.38
2023-04-16T19:37:21.639Z,56.53
2023-04-16T19:40:25.012Z,56.30
2023-04-16T19:43:30.634Z,56.06
2023-04-16T19:46:34.514Z,56.04
2023-04-16T19:49:37.376Z,56.12
2023-04-16T19:52:40.254Z,56.48
2023-04-16T19:55:43.164Z,56.84
2023-04-16T19:58:46.628Z,56.70
2023-04-16T20:01:49.454Z,56.66
2023-04-16T20:04:53.154Z,56.14
2023-04-16T20:07:57.094Z,56.20
2023-04-16T20:10:59.616Z,55.91
2023-04-16T20:14:02.298Z,55.92
2023-04-16T20:17:09.838Z,56.32
2023-04-16T20:20:15.712Z,56.19
2023-04-16T20:23:18.470Z,56.44
2023-04-16T20:26:24.016Z,56.25
2023-04-16T20:29:27.492Z,56.34
2023-04-16T20:32:31.117Z,56.09
2023-04-16T20:35:34.733Z,56.26
2023-04-16T20:38:38.932Z,56.29
2023-04-16T20:41:44.235Z,56.42
2023-04-16T20:44:50.386Z,56.33
2023-04-16T20:47:53.106Z,56.71
2023-04-16T20:51:03.809Z,56.67
2023-04-16T20:54:08.684Z,56.97
2023-04-16T20:57:11.657Z,56.98
2023-04-16T21:00:15.516Z,57.53
2023-04-16T21:03:18.865Z,57.38
2023-04-16T21:06:22.629Z,57.28
2023-04-16T21:09:25.453Z,57.49
2023-04-16T21:12:28.146Z,57.59
2023-04-16T21:15:31.678Z,57.96
2023-04-16T21:18:36.901Z,57.68
2023-04-16T21:21:39.680Z,58.15
2023-04-16T21:24:43.067Z,57.98
2023-04-16T21:27:45.816Z,58.19
2023-04-16T21:30:52.457Z,58.10
2023-04-16T21:33:55.145Z,58.21
2023-04-16T21:36:57.779Z,57.96
2023-04-16T21:40:00.639Z,58.01
2023-04-16T21:43:04.056Z,58.21
2023-04-16T21:46:06.687Z,58.24
2023-04-16T21:49:10.299Z,58.54
2023-04-16T21:52:22.310Z,58.84
2023-04-16T21:55:25.030Z,59.57
2023-04-16T21:58:28.217Z,59.17
2023-04-16T22:01:31.266Z,59.34
2023-04-16T22:04:40.131Z,59.09
2023-04-16T22:07:42.730Z,59.91
2023-04-16T22:10:45.436Z,58.62
2023-04-16T22:13:48.038Z,58.52
2023-04-16T22:16:53.573Z,58.25
2023-04-16T22:19:57.386Z,58.10
2023-04-16T22:23:00.787Z,58.33
2023-04-16T22:26:04.188Z,58.01
2023-04-16T22:29:06.780Z,58.46
2023-04-16T22:32:09.906Z,57.97
2023-04-16T22:35:12.731Z,57.75
2023-04-16T22:38:16.512Z,57.26
2023-04-16T22:41:20.211Z,57.45
2023-04-16T22:44:23.708Z,57.76
2023-04-16T22:47:26.314Z,57.36
2023-04-16T22:50:31.358Z,57.61
2023-04-16T22:53:36.048Z,57.67
2023-04-16T22:56:39.005Z,58.57
2023-04-16T22:59:41.944Z,58.31
2023-04-16T23:02:45.406Z,59.04
2023-04-16T23:05:49.200Z,58.74
2023-04-16T23:08:51.775Z,58.21
2023-04-16T23:11:54.435Z,58.75
2023-04-16T23:14:58.356Z,59.28
2023-04-16T23:18:01.128Z,58.69
2023-04-16T23:21:03.812Z,58.65
2023-04-16T23:24:07.552Z,58.72
2023-04-16T23:27:10.686Z,58.35
2023-04-16T23:30:13.671Z,58.49
2023-04-16T23:33:17.817Z,58.33
2023-04-16T23:36:20.806Z,58.45
2023-04-16T23:39:24.259Z,58.48
2023-04-16T23:42:26.909Z,58.82
2023-04-16T23:45:29.505Z,58.70
2023-04-16T23:48:32.561Z,59.65
2023-04-16T23:51:35.397Z,59.29
2023-04-16T23:54:38.406Z,58.99
2023-04-16T23:57:40.953Z,58.85
